createdAt,value
2022-10-28T00:01:14.362Z,67.10
2022-10-28T00:03:45.115Z,1.00
2022-10-28T00:06:15.579Z,50.40
2022-10-28T00:08:43.699Z,1.00
2022-10-28T00:11:13.312Z,1.00
2022-10-28T00:13:44.108Z,99.90
2022-10-28T00:16:14.371Z,1.00
2022-10-28T00:18:42.985Z,1.00
2022-10-28T00:21:14.730Z,99.90
2022-10-28T00:23:43.173Z,99.90
2022-10-28T00:26:12.887Z,99.90
2022-10-28T00:28:47.422Z,1.00
2022-10-28T00:31:17.872Z,99.90
2022-10-28T00:33:46.229Z,99.90
2022-10-28T00:36:17.096Z,1.00
2022-10-28T00:38:46.419Z,1.00
2022-10-28T00:41:16.437Z,1.00
2022-10-28T00:43:47.249Z,1.00
2022-10-28T00:46:20.957Z,99.90
2022-10-28T00:48:53.227Z,1.00
2022-10-28T00:51:23.574Z,27.20
2022-10-28T00:53:52.880Z,99.90
2022-10-28T00:56:21.836Z,1.00
2022-10-28T00:58:52.727Z,99.90
2022-10-28T01:01:20.936Z,99.90
2022-10-28T01:03:49.151Z,1.00
2022-10-28T01:06:18.094Z,99.90
2022-10-28T01:08:46.106Z,1.00
2022-10-28T01:11:36.748Z,99.90
2022-10-28T01:14:19.621Z,99.90
2022-10-28T01:17:01.151Z,99.90
2022-10-28T01:20:04.685Z,99.90
2022-10-28T01:22:37.552Z,99.90
2022-10-28T01:25:36.243Z,1.00
2022-10-28T01:28:26.688Z,1.00
2022-10-28T01:31:14.354Z,1.00
2022-10-28T01:33:48.668Z,1.00
2022-10-28T01:36:21.269Z,99.90
2022-10-28T01:38:52.950Z,99.90
2022-10-28T01:41:29.762Z,32.70
2022-10-28T01:44:02.819Z,1.00
2022-10-28T01:46:38.797Z,1.00
2022-10-28T01:49:12.401Z,99.90
2022-10-28T01:51:45.752Z,99.90
2022-10-28T01:54:17.587Z,1.00
2022-10-28T01:56:48.229Z,99.90
2022-10-28T01:59:18.943Z,1.00
2022-10-28T02:01:48.490Z,99.90
2022-10-28T02:04:16.872Z,99.90
2022-10-28T02:06:49.116Z,1.00
2022-10-28T02:09:29.116Z,99.90
2022-10-28T02:12:31.514Z,99.90
2022-10-28T02:15:18.641Z,1.00
2022-10-28T02:17:57.913Z,80.90
2022-10-28T02:20:35.868Z,6.70
2022-10-28T02:23:12.425Z,99.90
2022-10-28T02:25:46.356Z,99.90
2022-10-28T02:28:20.542Z,1.00
2022-10-28T02:30:54.564Z,99.90
2022-10-28T02:33:29.718Z,99.90
2022-10-28T02:36:03.707Z,37.20
2022-10-28T02:38:35.868Z,1.00
2022-10-28T02:41:09.271Z,1.00
2022-10-28T02:43:39.101Z,99.90
2022-10-28T02:46:09.085Z,1.00
2022-10-28T02:48:43.384Z,1.00
2022-10-28T02:51:14.952Z,1.00
2022-10-28T02:53:51.508Z,99.90
2022-10-28T02:56:22.301Z,1.00
2022-10-28T02:58:50.679Z,99.90
2022-10-28T03:01:19.094Z,1.00
2022-10-28T03:03:48.666Z,1.00
2022-10-28T03:06:16.803Z,1.00
2022-10-28T03:08:44.947Z,1.00
2022-10-28T03:11:13.031Z,99.90
2022-10-28T03:13:41.042Z,99.90
2022-10-28T03:16:09.243Z,1.00
2022-10-28T03:18:37.317Z,1.00
2022-10-28T03:21:06.945Z,1.00
2022-10-28T03:23:35.140Z,99.90
2022-10-28T03:26:03.161Z,54.70
2022-10-28T03:28:31.145Z,99.90
2022-10-28T03:30:59.221Z,1.00
2022-10-28T03:33:30.405Z,99.90
2022-10-28T03:35:58.525Z,44.60
2022-10-28T03:38:27.966Z,99.90
2022-10-28T03:40:56.062Z,1.00
2022-10-28T03:43:24.097Z,1.00
2022-10-28T03:45:52.282Z,1.00
2022-10-28T03:48:20.332Z,1.00
2022-10-28T03:50:48.332Z,1.00
2022-10-28T03:53:16.352Z,99.90
2022-10-28T03:55:45.789Z,99.90
2022-10-28T03:58:13.813Z,1.00
2022-10-28T04:00:41.805Z,1.00
2022-10-28T04:03:09.844Z,99.90
2022-10-28T04:05:37.851Z,95.50
2022-10-28T04:08:06.153Z,1.00
2022-10-28T04:10:34.163Z,99.90
2022-10-28T04:13:04.517Z,74.30
2022-10-28T04:15:32.940Z,1.00
2022-10-28T04:18:01.071Z,99.90
2022-10-28T04:20:29.876Z,99.90
2022-10-28T04:22:58.791Z,75.40
2022-10-28T04:25:28.088Z,34.10
2022-10-28T04:27:56.741Z,3.70
2022-10-28T04:30:26.567Z,1.00
2022-10-28T04:32:54.551Z,1.00
2022-10-28T04:35:22.561Z,1.00
2022-10-28T04:37:50.833Z,1.00
2022-10-28T04:40:19.251Z,1.00
2022-10-28T04:42:47.335Z,1.00
2022-10-28T04:45:15.720Z,1.00
2022-10-28T04:47:45.124Z,1.00
2022-10-28T04:50:13.115Z,1.00
2022-10-28T04:52:41.184Z,1.00
2022-10-28T04:55:09.981Z,1.00
2022-10-28T04:57:37.960Z,1.00
2022-10-28T05:00:06.949Z,99.90
2022-10-28T05:02:35.255Z,99.90
2022-10-28T05:05:05.142Z,99.90
2022-10-28T05:07:33.174Z,1.00
2022-10-28T05:10:01.296Z,1.00
2022-10-28T05:12:29.274Z,99.90
2022-10-28T05:14:57.424Z,1.00
2022-10-28T05:17:25.586Z,1.00
2022-10-28T05:19:53.630Z,1.00
2022-10-28T05:22:23.065Z,83.60
2022-10-28T05:24:51.100Z,99.90
2022-10-28T05:28:15.567Z,1.00
2022-10-28T05:30:45.019Z,1.00
2022-10-28T05:33:13.366Z,1.00
2022-10-28T05:35:41.886Z,1.00
2022-10-28T05:38:09.980Z,1.00
2022-10-28T05:40:38.105Z,1.00
2022-10-28T05:43:06.377Z,1.00
2022-10-28T05:45:35.916Z,1.00
2022-10-28T05:48:04.163Z,1.00
2022-10-28T05:50:32.241Z,1.00
2022-10-28T05:53:00.361Z,1.00
2022-10-28T05:55:30.065Z,1.00
2022-10-28T05:57:58.698Z,1.00
2022-10-28T06:00:27.757Z,1.00
2022-10-28T06:03:06.905Z,1.00
2022-10-28T06:05:35.072Z,1.00
2022-10-28T06:08:04.824Z,1.00
2022-10-28T06:10:33.076Z,99.90
2022-10-28T06:12:59.683Z,99.90
2022-10-28T06:15:27.740Z,99.90
2022-10-28T06:17:55.933Z,99.90
2022-10-28T06:20:25.762Z,99.90
2022-10-28T06:22:55.604Z,99.90
2022-10-28T06:25:25.266Z,99.90
2022-10-28T06:27:54.353Z,99.90
2022-10-28T06:30:22.882Z,99.90
2022-10-28T06:32:51.150Z,99.90
2022-10-28T06:35:19.550Z,99.90
2022-10-28T06:37:53.277Z,99.90
2022-10-28T06:40:22.036Z,99.90
2022-10-28T06:42:57.015Z,99.90
2022-10-28T06:45:25.387Z,99.90
2022-10-28T06:47:58.356Z,99.90
2022-10-28T06:50:27.526Z,99.90
2022-10-28T06:52:58.478Z,99.90
2022-10-28T06:55:27.764Z,99.90
2022-10-28T06:57:59.705Z,99.90
2022-10-28T07:00:28.201Z,99.90
2022-10-28T07:02:56.674Z,99.90
2022-10-28T07:05:26.562Z,99.90
2022-10-28T07:07:55.415Z,99.90
2022-10-28T07:10:25.629Z,1.00
2022-10-28T07:12:54.463Z,1.00
2022-10-28T07:15:23.089Z,1.00
2022-10-28T07:17:54.775Z,1.00
2022-10-28T07:20:23.844Z,1.00
2022-10-28T07:22:57.268Z,99.90
2022-10-28T07:25:27.580Z,99.90
2022-10-28T07:27:57.637Z,99.90
2022-10-28T07:30:26.080Z,99.90
2022-10-28T07:32:54.630Z,99.90
2022-10-28T07:35:22.930Z,99.90
2022-10-28T07:37:51.081Z,99.90
2022-10-28T07:40:19.485Z,99.90
2022-10-28T07:42:49.013Z,99.90
2022-10-28T07:45:17.857Z,99.90
2022-10-28T07:47:46.491Z,99.90
2022-10-28T07:50:14.628Z,99.90
2022-10-28T07:52:42.948Z,99.90
2022-10-28T07:55:12.181Z,99.90
2022-10-28T07:57:40.422Z,99.90
2022-10-28T08:00:11.336Z,99.90
2022-10-28T08:02:40.137Z,99.90
2022-10-28T08:05:08.831Z,1.00
2022-10-28T08:07:38.720Z,1.00
2022-10-28T08:10:07.965Z,1.00
2022-10-28T08:12:36.162Z,1.00
2022-10-28T08:15:04.842Z,1.00
2022-10-28T08:17:34.412Z,19.10
2022-10-28T08:20:02.490Z,2.90
2022-10-28T08:22:30.572Z,99.90
2022-10-28T08:24:58.594Z,99.90
2022-10-28T08:27:26.783Z,99.90
2022-10-28T08:29:55.114Z,99.90
2022-10-28T08:32:23.209Z,99.90
2022-10-28T08:34:52.650Z,99.90
2022-10-28T08:37:20.813Z,99.90
2022-10-28T08:39:49.044Z,59.40
2022-10-28T08:42:31.130Z,1.00
2022-10-28T08:45:15.816Z,96.90
2022-10-28T08:47:53.302Z,96.00
2022-10-28T08:50:25.945Z,99.90
2022-10-28T08:52:58.139Z,1.00
2022-10-28T08:55:30.796Z,1.00
2022-10-28T08:58:03.672Z,1.00
2022-10-28T09:00:33.976Z,1.00
2022-10-28T09:03:17.184Z,1.00
2022-10-28T09:05:50.004Z,1.00
2022-10-28T09:08:23.687Z,1.00
2022-10-28T09:11:34.560Z,99.90
2022-10-28T09:14:15.032Z,99.90
2022-10-28T09:16:47.986Z,99.90
2022-10-28T09:19:28.878Z,99.90
2022-10-28T09:22:08.508Z,1.00
2022-10-28T09:24:47.112Z,1.00
2022-10-28T09:27:25.994Z,1.00
2022-10-28T09:30:01.933Z,1.00
2022-10-28T09:32:40.860Z,99.90
2022-10-28T09:35:14.135Z,99.90
2022-10-28T09:37:46.745Z,99.90
2022-10-28T09:40:20.670Z,99.90
2022-10-28T09:42:55.976Z,99.90
2022-10-28T09:45:28.382Z,99.90
2022-10-28T09:48:01.476Z,99.90
2022-10-28T09:50:32.441Z,99.90
2022-10-28T09:53:07.350Z,99.90
2022-10-28T09:55:35.609Z,99.90
2022-10-28T09:58:04.797Z,99.90
2022-10-28T10:00:33.184Z,99.90
2022-10-28T10:03:01.356Z,99.90
2022-10-28T10:05:31.043Z,99.90
2022-10-28T10:08:04.426Z,99.90
2022-10-28T10:10:37.242Z,99.90
2022-10-28T10:13:07.511Z,99.90
2022-10-28T10:15:40.066Z,99.90
2022-10-28T10:18:12.730Z,99.90
2022-10-28T10:20:49.718Z,99.90
2022-10-28T10:23:36.806Z,99.90
2022-10-28T10:26:09.654Z,99.90
2022-10-28T10:28:44.834Z,99.90
2022-10-28T10:31:20.913Z,99.90
2022-10-28T10:33:52.174Z,99.90
2022-10-28T10:36:23.571Z,99.90
2022-10-28T10:38:55.103Z,99.90
2022-10-28T10:41:44.279Z,99.90
2022-10-28T10:44:34.643Z,99.90
2022-10-28T10:47:21.583Z,99.90
2022-10-28T10:49:51.942Z,99.90
2022-10-28T10:52:23.705Z,99.90
2022-10-28T10:55:07.728Z,99.90
2022-10-28T10:57:36.418Z,99.90
2022-10-28T11:00:05.853Z,99.90
2022-10-28T11:02:38.021Z,99.90
2022-10-28T11:05:09.569Z,99.90
2022-10-28T11:07:39.851Z,99.90
2022-10-28T11:10:23.161Z,99.90
2022-10-28T11:12:56.888Z,99.90
2022-10-28T11:15:28.267Z,99.90
2022-10-28T11:17:58.535Z,99.90
2022-10-28T11:20:31.106Z,99.90
2022-10-28T11:23:11.748Z,99.90
2022-10-28T11:25:44.272Z,99.90
2022-10-28T11:28:36.504Z,99.90
2022-10-28T11:31:18.951Z,99.90
2022-10-28T11:33:54.716Z,99.90
2022-10-28T11:36:30.895Z,99.90
2022-10-28T11:39:21.297Z,99.90
2022-10-28T11:42:01.793Z,99.90
2022-10-28T11:44:42.581Z,99.90
2022-10-28T11:47:31.286Z,99.90
2022-10-28T11:50:23.596Z,99.90
2022-10-28T11:53:13.437Z,99.90
2022-10-28T11:55:48.895Z,99.90
2022-10-28T11:58:29.522Z,99.90
2022-10-28T12:01:13.521Z,99.90
2022-10-28T12:04:02.951Z,99.90
2022-10-28T12:06:48.525Z,99.90
2022-10-28T12:09:27.157Z,99.90
2022-10-28T12:12:11.072Z,99.90
2022-10-28T12:14:47.430Z,99.90
2022-10-28T12:17:20.978Z,99.90
2022-10-28T12:19:55.580Z,99.90
2022-10-28T12:22:28.456Z,99.90
2022-10-28T12:24:59.061Z,99.90
2022-10-28T12:27:30.940Z,99.90
2022-10-28T12:30:07.775Z,99.90
2022-10-28T12:32:37.355Z,99.90
2022-10-28T12:35:09.029Z,99.90
2022-10-28T12:37:44.767Z,99.90
2022-10-28T12:40:20.709Z,99.90
2022-10-28T12:42:55.370Z,99.90
2022-10-28T12:45:25.372Z,99.90
2022-10-28T12:48:00.469Z,99.90
2022-10-28T12:50:34.444Z,99.90
2022-10-28T12:53:16.264Z,99.90
2022-10-28T12:55:50.405Z,99.90
2022-10-28T12:58:24.736Z,99.90
2022-10-28T13:00:58.184Z,99.90
2022-10-28T13:03:26.336Z,99.90
2022-10-28T13:06:06.685Z,99.90
2022-10-28T13:08:58.919Z,99.90
2022-10-28T13:12:04.495Z,99.90
2022-10-28T13:15:14.414Z,99.90
2022-10-28T13:17:55.389Z,99.90
2022-10-28T13:20:32.298Z,99.90
2022-10-28T13:23:12.509Z,99.90
2022-10-28T13:25:55.171Z,99.90
2022-10-28T13:28:30.567Z,99.90
2022-10-28T13:31:01.648Z,99.90
2022-10-28T13:33:32.555Z,99.90
2022-10-28T13:36:17.625Z,99.90
2022-10-28T13:38:53.482Z,99.90
2022-10-28T13:41:46.235Z,99.90
2022-10-28T13:44:28.299Z,99.90
2022-10-28T13:47:28.393Z,99.90
2022-10-28T13:50:37.505Z,99.90
2022-10-28T13:53:43.673Z,99.90
2022-10-28T13:56:42.400Z,99.90
2022-10-28T13:59:30.931Z,99.90
2022-10-28T14:04:57.951Z,99.90
2022-10-28T14:07:31.327Z,99.90
2022-10-28T14:10:19.247Z,99.90
2022-10-28T14:12:52.948Z,99.90
2022-10-28T14:15:25.894Z,99.90
2022-10-28T14:18:09.691Z,99.90
2022-10-28T14:21:00.719Z,99.90
2022-10-28T14:24:06.811Z,99.90
2022-10-28T14:27:26.099Z,99.90
2022-10-28T14:30:14.846Z,99.90
2022-10-28T14:33:00.619Z,99.90
2022-10-28T14:35:34.878Z,99.90
2022-10-28T14:38:50.250Z,99.90
2022-10-28T14:41:35.297Z,99.90
2022-10-28T14:44:17.248Z,99.90
2022-10-28T14:47:00.665Z,99.90
2022-10-28T14:49:31.986Z,99.90
2022-10-28T14:52:08.504Z,99.90
2022-10-28T14:54:44.650Z,99.90
2022-10-28T14:57:12.773Z,99.90
2022-10-28T14:59:43.665Z,99.90
2022-10-28T15:02:15.791Z,99.90
2022-10-28T15:04:46.950Z,99.90
2022-10-28T15:07:17.320Z,99.90
2022-10-28T15:09:48.807Z,99.90
2022-10-28T15:12:18.667Z,99.90
2022-10-28T15:14:52.231Z,99.90
2022-10-28T15:17:24.034Z,99.90
2022-10-28T15:19:54.168Z,99.90
2022-10-28T15:22:23.854Z,99.90
2022-10-28T15:25:00.459Z,99.90
2022-10-28T15:27:31.147Z,99.90
2022-10-28T15:29:59.510Z,99.90
2022-10-28T15:32:36.356Z,99.90
2022-10-28T15:35:38.110Z,99.90
2022-10-28T15:38:33.207Z,99.90
2022-10-28T15:41:01.464Z,99.90
2022-10-28T15:43:31.105Z,99.90
2022-10-28T15:46:10.775Z,99.90
2022-10-28T15:48:40.210Z,99.90
2022-10-28T15:51:16.055Z,99.90
2022-10-28T15:53:44.716Z,99.90
2022-10-28T15:56:24.171Z,99.90
2022-10-28T15:59:09.531Z,99.90
2022-10-28T16:01:39.812Z,99.90
2022-10-28T16:04:43.999Z,99.90
2022-10-28T16:07:12.813Z,99.90
2022-10-28T16:09:45.903Z,99.90
2022-10-28T16:12:16.514Z,99.90
2022-10-28T16:14:46.468Z,99.90
2022-10-28T16:17:17.690Z,99.90
2022-10-28T16:19:52.085Z,99.90
2022-10-28T16:22:21.041Z,99.90
2022-10-28T16:24:50.809Z,99.90
2022-10-28T16:27:21.303Z,99.90
2022-10-28T16:29:49.807Z,99.90
2022-10-28T16:32:26.284Z,99.90
2022-10-28T16:34:56.920Z,99.90
2022-10-28T16:37:27.036Z,99.90
2022-10-28T16:39:55.873Z,99.90
2022-10-28T16:42:24.249Z,99.90
2022-10-28T16:44:52.398Z,99.90
2022-10-28T16:47:22.467Z,99.90
2022-10-28T16:49:54.284Z,99.90
2022-10-28T16:52:29.807Z,99.90
2022-10-28T16:54:58.996Z,99.90
2022-10-28T16:57:27.739Z,99.90
2022-10-28T16:59:56.160Z,99.90
2022-10-28T17:02:27.700Z,99.90
2022-10-28T17:04:56.482Z,99.90
2022-10-28T17:07:26.197Z,99.90
2022-10-28T17:09:54.711Z,99.90
2022-10-28T17:12:24.606Z,99.90
2022-10-28T17:14:53.399Z,99.90
2022-10-28T17:17:21.551Z,1.00
2022-10-28T17:19:49.908Z,99.90
2022-10-28T17:22:18.241Z,1.00
2022-10-28T17:24:50.820Z,1.00
2022-10-28T17:27:19.290Z,1.00
2022-10-28T17:29:47.684Z,1.00
2022-10-28T17:32:16.766Z,99.90
2022-10-28T17:34:44.937Z,99.90
2022-10-28T17:37:13.148Z,99.90
2022-10-28T17:39:42.375Z,99.90
2022-10-28T17:42:12.075Z,99.90
2022-10-28T17:44:40.382Z,99.90
2022-10-28T17:47:08.712Z,99.90
2022-10-28T17:49:37.248Z,99.90
2022-10-28T17:52:08.204Z,99.90
2022-10-28T17:54:36.487Z,99.90
2022-10-28T17:57:04.864Z,99.90
2022-10-28T17:59:34.527Z,99.90
2022-10-28T18:02:10.827Z,99.90
2022-10-28T18:04:39.332Z,99.90
2022-10-28T18:07:07.724Z,99.90
2022-10-28T18:09:36.144Z,99.90
2022-10-28T18:12:04.364Z,99.90
2022-10-28T18:14:33.961Z,99.90
2022-10-28T18:17:02.179Z,99.90
2022-10-28T18:19:30.872Z,1.00
2022-10-28T18:21:59.605Z,1.00
2022-10-28T18:24:27.991Z,1.00
2022-10-28T18:26:57.869Z,1.00
2022-10-28T18:29:26.194Z,1.00
2022-10-28T18:31:56.808Z,1.00
2022-10-28T18:34:25.104Z,1.00
2022-10-28T18:36:53.310Z,1.00
2022-10-28T18:39:21.451Z,1.00
2022-10-28T18:41:51.423Z,1.00
2022-10-28T18:44:21.662Z,1.00
2022-10-28T18:46:51.346Z,1.00
2022-10-28T18:49:20.862Z,1.00
2022-10-28T18:51:48.999Z,1.00
2022-10-28T18:54:17.361Z,99.90
2022-10-28T18:56:47.955Z,1.00
2022-10-28T18:59:17.310Z,1.00
2022-10-28T19:01:47.120Z,1.00
2022-10-28T19:04:15.521Z,99.90
2022-10-28T19:06:46.851Z,99.90
2022-10-28T19:09:15.178Z,99.90
2022-10-28T19:11:43.455Z,99.90
2022-10-28T19:14:11.808Z,99.90
2022-10-28T19:16:39.947Z,99.90
2022-10-28T19:19:08.189Z,99.90
2022-10-28T19:21:36.783Z,99.90
2022-10-28T19:24:07.127Z,99.90
2022-10-28T19:26:35.628Z,99.90
2022-10-28T19:29:05.861Z,99.90
2022-10-28T19:31:38.720Z,99.90
2022-10-28T19:34:07.011Z,99.90
2022-10-28T19:36:35.262Z,99.90
2022-10-28T19:39:04.483Z,99.90
2022-10-28T19:41:34.769Z,99.90
2022-10-28T19:44:03.827Z,99.90
2022-10-28T19:46:33.713Z,99.90
2022-10-28T19:49:04.501Z,99.90
2022-10-28T19:51:34.582Z,99.90
2022-10-28T19:54:04.836Z,99.90
2022-10-28T19:56:36.015Z,99.90
2022-10-28T19:59:05.948Z,99.90
2022-10-28T20:01:35.887Z,99.90
2022-10-28T20:04:04.795Z,99.90
2022-10-28T20:06:35.084Z,99.90
2022-10-28T20:09:03.728Z,99.90
2022-10-28T20:11:34.740Z,99.90
2022-10-28T20:14:05.699Z,99.90
2022-10-28T20:16:34.550Z,99.90
2022-10-28T20:19:03.513Z,99.90
2022-10-28T20:21:34.263Z,99.90
2022-10-28T20:24:02.656Z,99.90
2022-10-28T20:26:32.881Z,1.00
2022-10-28T20:29:03.078Z,1.00
2022-10-28T20:31:32.508Z,1.00
2022-10-28T20:34:03.555Z,1.00
2022-10-28T20:36:33.714Z,1.00
2022-10-28T20:39:03.924Z,1.00
2022-10-28T20:41:33.712Z,1.00
2022-10-28T20:44:03.762Z,1.00
2022-10-28T20:46:32.363Z,1.00
2022-10-28T20:49:00.936Z,1.00
2022-10-28T20:51:32.600Z,1.00
2022-10-28T20:54:00.903Z,1.00
2022-10-28T20:56:30.713Z,1.00
2022-10-28T20:58:59.331Z,1.00
2022-10-28T21:01:30.526Z,1.00
2022-10-28T21:04:00.599Z,1.00
2022-10-28T21:06:29.156Z,1.00
2022-10-28T21:08:58.131Z,33.60
2022-10-28T21:11:27.410Z,60.10
2022-10-28T21:13:57.655Z,99.90
2022-10-28T21:16:28.846Z,10.30
2022-10-28T21:18:57.179Z,1.00
2022-10-28T21:21:26.370Z,1.00
2022-10-28T21:23:54.715Z,1.00
2022-10-28T21:26:23.138Z,1.00
2022-10-28T21:28:52.465Z,1.00
2022-10-28T21:31:21.680Z,1.00
2022-10-28T21:33:51.461Z,1.00
2022-10-28T21:36:21.324Z,1.00
2022-10-28T21:38:49.459Z,1.00
2022-10-28T21:41:19.294Z,1.00
2022-10-28T21:43:52.460Z,1.00
2022-10-28T21:46:22.514Z,1.00
2022-10-28T21:48:52.093Z,1.00
2022-10-28T21:51:20.222Z,1.00
2022-10-28T21:53:48.431Z,1.00
2022-10-28T21:56:19.327Z,1.00
2022-10-28T21:58:48.644Z,1.00
2022-10-28T22:01:19.061Z,1.00
2022-10-28T22:03:47.640Z,1.00
2022-10-28T22:06:17.163Z,1.00
2022-10-28T22:08:45.332Z,1.00
2022-10-28T22:11:18.570Z,1.00
2022-10-28T22:13:47.373Z,1.00
2022-10-28T22:16:17.406Z,1.00
2022-10-28T22:18:46.066Z,1.00
2022-10-28T22:21:17.401Z,1.00
2022-10-28T22:23:45.687Z,1.00
2022-10-28T22:26:15.502Z,99.90
2022-10-28T22:28:44.257Z,99.90
2022-10-28T22:31:15.095Z,99.90
2022-10-28T22:33:43.369Z,99.90
2022-10-28T22:36:13.950Z,99.90
2022-10-28T22:38:43.971Z,99.90
2022-10-28T22:41:14.522Z,99.90
2022-10-28T22:43:44.130Z,99.90
2022-10-28T22:46:13.283Z,99.90
2022-10-28T22:48:41.760Z,99.90
2022-10-28T22:51:10.424Z,99.90
2022-10-28T22:53:38.995Z,99.90
2022-10-28T22:56:10.150Z,1.00
2022-10-28T22:58:38.282Z,1.00
2022-10-28T23:01:07.615Z,1.00
2022-10-28T23:03:41.395Z,1.00
2022-10-28T23:06:11.810Z,1.00
2022-10-28T23:08:41.367Z,99.90
2022-10-28T23:11:12.016Z,96.50
2022-10-28T23:13:40.415Z,99.90
2022-10-28T23:16:10.177Z,99.90
2022-10-28T23:18:38.812Z,1.00
2022-10-28T23:21:08.762Z,1.00
2022-10-28T23:23:36.919Z,1.00
2022-10-28T23:26:05.549Z,30.50
2022-10-28T23:28:35.120Z,49.00
2022-10-28T23:31:03.956Z,99.90
2022-10-28T23:33:33.315Z,99.90
2022-10-28T23:36:04.144Z,99.90
2022-10-28T23:38:33.004Z,99.90
2022-10-28T23:41:02.914Z,99.90
2022-10-28T23:43:32.535Z,99.90
2022-10-28T23:46:02.643Z,99.90
2022-10-28T23:48:30.895Z,99.90
2022-10-28T23:50:59.251Z,99.90
2022-10-28T23:55:57.285Z,99.90
2022-10-28T23:58:25.787Z,96.70
